createdAt,value
2022-09-16T00:00:52.350Z,1001.69
2022-09-16T00:01:52.309Z,1001.70
2022-09-16T00:02:52.205Z,1001.64
2022-09-16T00:03:52.186Z,1001.65
2022-09-16T00:04:52.165Z,1001.67
2022-09-16T00:05:52.155Z,1001.64
2022-09-16T00:06:52.124Z,1001.65
2022-09-16T00:07:52.107Z,1001.69
2022-09-16T00:08:52.083Z,1001.67
2022-09-16T00:09:52.089Z,1001.68
2022-09-16T00:10:52.042Z,1001.68
2022-09-16T00:11:52.022Z,1001.68
2022-09-16T00:12:52.000Z,1001.59
2022-09-16T00:13:51.982Z,1001.60
2022-09-16T00:14:51.960Z,1001.61
2022-09-16T00:15:52.035Z,1001.60
2022-09-16T00:16:51.923Z,1001.54
2022-09-16T00:17:51.900Z,1001.53
2022-09-16T00:18:51.880Z,1001.56
2022-09-16T00:19:51.864Z,1001.55
2022-09-16T00:20:51.843Z,1001.54
2022-09-16T00:21:51.819Z,1001.52
2022-09-16T00:22:51.799Z,1001.55
2022-09-16T00:23:51.780Z,1001.56
2022-09-16T00:24:51.760Z,1001.58
2022-09-16T00:25:51.762Z,1001.57
2022-09-16T00:26:51.715Z,1001.57
2022-09-16T00:27:51.699Z,1001.57
2022-09-16T00:28:51.676Z,1001.58
2022-09-16T00:29:51.685Z,1001.64
2022-09-16T00:30:51.638Z,1001.63
2022-09-16T00:31:51.652Z,1001.65
2022-09-16T00:32:51.595Z,1001.65
2022-09-16T00:33:51.577Z,1001.67
2022-09-16T00:34:51.555Z,1001.69
2022-09-16T00:35:51.536Z,1001.69
2022-09-16T00:36:51.512Z,1001.69
2022-09-16T00:37:51.498Z,1001.67
2022-09-16T00:38:51.475Z,1001.68
2022-09-16T00:39:51.477Z,1001.66
2022-09-16T00:40:51.433Z,1001.68
2022-09-16T00:41:51.435Z,1001.68
2022-09-16T00:42:51.395Z,1001.67
2022-09-16T00:43:51.372Z,1001.65
2022-09-16T00:44:51.348Z,1001.63
2022-09-16T00:45:51.331Z,1001.64
2022-09-16T00:46:51.358Z,1001.67
2022-09-16T00:47:51.291Z,1001.69
2022-09-16T00:48:51.267Z,1001.73
2022-09-16T00:49:51.248Z,1001.72
2022-09-16T00:50:51.252Z,1001.75
2022-09-16T00:51:51.212Z,1001.77
2022-09-16T00:52:51.187Z,1001.81
2022-09-16T00:53:51.167Z,1001.82
2022-09-16T00:54:51.144Z,1001.87
2022-09-16T00:55:51.127Z,1001.82
2022-09-16T00:56:51.105Z,1001.79
2022-09-16T00:57:51.108Z,1001.77
2022-09-16T00:58:51.062Z,1001.75
2022-09-16T00:59:51.050Z,1001.76
2022-09-16T01:00:51.117Z,1001.75
2022-09-16T01:01:51.071Z,1001.70
2022-09-16T01:02:50.985Z,1001.70
2022-09-16T01:03:50.963Z,1001.73
2022-09-16T01:04:50.940Z,1001.64
2022-09-16T01:05:50.922Z,1001.65
2022-09-16T01:06:50.901Z,1001.68
2022-09-16T01:07:50.882Z,1001.64
2022-09-16T01:08:50.859Z,1001.66
2022-09-16T01:09:50.840Z,1001.73
2022-09-16T01:10:50.818Z,1001.78
2022-09-16T01:11:50.803Z,1001.87
2022-09-16T01:12:50.779Z,1001.82
2022-09-16T01:13:50.780Z,1001.91
2022-09-16T01:14:50.737Z,1001.89
2022-09-16T01:15:50.761Z,1001.89
2022-09-16T01:16:50.694Z,1001.85
2022-09-16T01:17:50.676Z,1001.84
2022-09-16T01:18:50.655Z,1001.80
2022-09-16T01:19:50.634Z,1001.83
2022-09-16T01:20:50.614Z,1001.81
2022-09-16T01:21:50.596Z,1001.74
2022-09-16T01:22:50.575Z,1001.70
2022-09-16T01:23:50.555Z,1001.68
2022-09-16T01:24:50.531Z,1001.64
2022-09-16T01:25:50.512Z,1001.67
2022-09-16T01:26:50.493Z,1001.72
2022-09-16T01:27:50.473Z,1001.70
2022-09-16T01:28:50.449Z,1001.74
2022-09-16T01:29:50.452Z,1001.76
2022-09-16T01:30:50.409Z,1001.74
2022-09-16T01:31:50.448Z,1001.71
2022-09-16T01:32:50.366Z,1001.74
2022-09-16T01:33:50.348Z,1001.69
2022-09-16T01:34:50.332Z,1001.72
2022-09-16T01:35:50.307Z,1001.71
2022-09-16T01:36:50.290Z,1001.73
2022-09-16T01:37:50.267Z,1001.71
2022-09-16T01:38:50.245Z,1001.71
2022-09-16T01:39:50.291Z,1001.70
2022-09-16T01:40:50.203Z,1001.70
2022-09-16T01:41:50.182Z,1001.70
2022-09-16T01:42:50.162Z,1001.68
2022-09-16T01:43:50.143Z,1001.66
2022-09-16T01:44:50.123Z,1001.64
2022-09-16T01:45:50.119Z,1001.66
2022-09-16T01:46:50.146Z,1001.63
2022-09-16T01:47:50.060Z,1001.62
2022-09-16T01:48:53.608Z,1001.66
2022-09-16T01:49:50.020Z,1001.65
2022-09-16T01:50:49.999Z,1001.62
2022-09-16T01:51:49.978Z,1001.66
2022-09-16T01:52:49.955Z,1001.65
2022-09-16T01:53:49.937Z,1001.64
2022-09-16T01:54:49.916Z,1001.68
2022-09-16T01:55:49.903Z,1001.67
2022-09-16T01:56:49.874Z,1001.61
2022-09-16T01:57:49.854Z,1001.65
2022-09-16T01:58:49.835Z,1001.66
2022-09-16T01:59:49.813Z,1001.62
2022-09-16T02:00:49.794Z,1001.70
2022-09-16T02:01:49.904Z,1001.66
2022-09-16T02:02:49.845Z,1001.64
2022-09-16T02:03:49.731Z,1001.65
2022-09-16T02:04:49.710Z,1001.67
2022-09-16T02:05:49.691Z,1001.71
2022-09-16T02:06:49.670Z,1001.66
2022-09-16T02:07:49.647Z,1001.67
2022-09-16T02:08:49.625Z,1001.64
2022-09-16T02:09:49.607Z,1001.65
2022-09-16T02:10:49.586Z,1001.64
2022-09-16T02:11:49.567Z,1001.65
2022-09-16T02:12:49.542Z,1001.65
2022-09-16T02:13:49.525Z,1001.63
2022-09-16T02:14:49.504Z,1001.64
2022-09-16T02:15:49.549Z,1001.64
2022-09-16T02:16:49.460Z,1001.59
2022-09-16T02:17:49.459Z,1001.59
2022-09-16T02:18:49.419Z,1001.61
2022-09-16T02:19:49.404Z,1001.59
2022-09-16T02:20:49.378Z,1001.59
2022-09-16T02:21:49.361Z,1001.64
2022-09-16T02:22:49.337Z,1001.60
2022-09-16T02:23:49.316Z,1001.68
2022-09-16T02:24:49.296Z,1001.64
2022-09-16T02:25:49.278Z,1001.68
2022-09-16T02:26:49.257Z,1001.67
2022-09-16T02:27:49.252Z,1001.68
2022-09-16T02:28:49.212Z,1001.67
2022-09-16T02:29:49.201Z,1001.64
2022-09-16T02:30:49.226Z,1001.67
2022-09-16T02:31:52.385Z,1001.67
2022-09-16T02:32:49.132Z,1001.60
2022-09-16T02:33:49.128Z,1001.61
2022-09-16T02:34:49.092Z,1001.62
2022-09-16T02:35:49.074Z,1001.62
2022-09-16T02:36:49.051Z,1001.63
2022-09-16T02:37:49.030Z,1001.58
2022-09-16T02:38:49.009Z,1001.57
2022-09-16T02:39:49.036Z,1001.56
2022-09-16T02:40:48.965Z,1001.61
2022-09-16T02:41:48.951Z,1001.59
2022-09-16T02:42:48.927Z,1001.58
2022-09-16T02:43:48.910Z,1001.56
2022-09-16T02:44:48.885Z,1001.61
2022-09-16T02:45:48.865Z,1001.60
2022-09-16T02:46:48.929Z,1001.60
2022-09-16T02:47:48.829Z,1001.58
2022-09-16T02:48:48.803Z,1001.56
2022-09-16T02:49:48.799Z,1001.66
2022-09-16T02:50:48.762Z,1001.59
2022-09-16T02:51:48.741Z,1001.60
2022-09-16T02:52:48.721Z,1001.55
2022-09-16T02:53:48.698Z,1001.56
2022-09-16T02:54:48.680Z,1001.59
2022-09-16T02:55:48.658Z,1001.59
2022-09-16T02:56:48.637Z,1001.55
2022-09-16T02:57:48.616Z,1001.51
2022-09-16T02:58:48.596Z,1001.53
2022-09-16T02:59:48.575Z,1001.49
2022-09-16T03:00:48.636Z,1001.46
2022-09-16T03:01:48.731Z,1001.46
2022-09-16T03:02:48.547Z,1001.41
2022-09-16T03:03:48.493Z,1001.41
2022-09-16T03:04:48.474Z,1001.45
2022-09-16T03:05:48.472Z,1001.45
2022-09-16T03:06:48.433Z,1001.44
2022-09-16T03:07:48.410Z,1001.41
2022-09-16T03:08:48.403Z,1001.42
2022-09-16T03:09:48.369Z,1001.43
2022-09-16T03:10:48.350Z,1001.44
2022-09-16T03:11:48.330Z,1001.43
2022-09-16T03:12:48.311Z,1001.45
2022-09-16T03:13:48.289Z,1001.51
2022-09-16T03:14:48.268Z,1001.51
2022-09-16T03:15:48.292Z,1001.50
2022-09-16T03:16:48.227Z,1001.53
2022-09-16T03:17:48.203Z,1001.51
2022-09-16T03:18:48.186Z,1001.53
2022-09-16T03:19:48.173Z,1001.47
2022-09-16T03:20:48.144Z,1001.46
2022-09-16T03:21:48.139Z,1001.50
2022-09-16T03:22:48.100Z,1001.51
2022-09-16T03:23:48.081Z,1001.45
2022-09-16T03:24:48.060Z,1001.47
2022-09-16T03:25:48.042Z,1001.47
2022-09-16T03:26:48.020Z,1001.46
2022-09-16T03:27:48.000Z,1001.46
2022-09-16T03:28:47.977Z,1001.47
2022-09-16T03:29:47.966Z,1001.47
2022-09-16T03:30:47.969Z,1001.50
2022-09-16T03:31:47.917Z,1001.49
2022-09-16T03:32:47.895Z,1001.49
2022-09-16T03:33:47.872Z,1001.52
2022-09-16T03:34:47.858Z,1001.47
2022-09-16T03:35:47.837Z,1001.48
2022-09-16T03:36:47.814Z,1001.47
2022-09-16T03:37:47.814Z,1001.48
2022-09-16T03:38:47.772Z,1001.48
2022-09-16T03:39:47.770Z,1001.49
2022-09-16T03:40:47.730Z,1001.50
2022-09-16T03:41:47.709Z,1001.45
2022-09-16T03:42:47.689Z,1001.45
2022-09-16T03:43:47.668Z,1001.39
2022-09-16T03:44:47.648Z,1001.38
2022-09-16T03:45:47.626Z,1001.36
2022-09-16T03:46:47.608Z,1001.33
2022-09-16T03:47:47.583Z,1001.35
2022-09-16T03:48:47.563Z,1001.40
2022-09-16T03:49:47.543Z,1001.32
2022-09-16T03:50:47.525Z,1001.33
2022-09-16T03:51:47.499Z,1001.38
2022-09-16T03:52:47.482Z,1001.37
2022-09-16T03:53:47.560Z,1001.36
2022-09-16T03:54:47.441Z,1001.39
2022-09-16T03:55:47.419Z,1001.36
2022-09-16T03:56:47.400Z,1001.35
2022-09-16T03:57:47.377Z,1001.39
2022-09-16T03:58:47.358Z,1001.40
2022-09-16T03:59:47.336Z,1001.38
2022-09-16T04:00:47.316Z,1001.38
2022-09-16T04:01:47.381Z,1001.40
2022-09-16T04:02:47.302Z,1001.44
2022-09-16T04:03:47.255Z,1001.41
2022-09-16T04:04:47.230Z,1001.38
2022-09-16T04:05:47.211Z,1001.36
2022-09-16T04:06:47.191Z,1001.32
2022-09-16T04:07:47.167Z,1001.32
2022-09-16T04:08:47.200Z,1001.29
2022-09-16T04:09:47.215Z,1001.32
2022-09-16T04:10:47.108Z,1001.30
2022-09-16T04:11:47.086Z,1001.29
2022-09-16T04:12:47.064Z,1001.31
2022-09-16T04:13:47.042Z,1001.27
2022-09-16T04:14:47.022Z,1001.29
2022-09-16T04:15:47.067Z,1001.28
2022-09-16T04:16:46.981Z,1001.27
2022-09-16T04:17:46.960Z,1001.31
2022-09-16T04:18:46.941Z,1001.31
2022-09-16T04:19:46.919Z,1001.30
2022-09-16T04:20:46.898Z,1001.29
2022-09-16T04:21:46.873Z,1001.30
2022-09-16T04:22:46.860Z,1001.26
2022-09-16T04:23:46.901Z,1001.28
2022-09-16T04:24:46.816Z,1001.25
2022-09-16T04:25:46.813Z,1001.25
2022-09-16T04:26:46.774Z,1001.26
2022-09-16T04:27:46.748Z,1001.20
2022-09-16T04:28:46.731Z,1001.20
2022-09-16T04:29:46.709Z,1001.23
2022-09-16T04:30:46.753Z,1001.24
2022-09-16T04:31:46.668Z,1001.25
2022-09-16T04:32:46.648Z,1001.27
2022-09-16T04:33:46.623Z,1001.23
2022-09-16T04:34:46.605Z,1001.27
2022-09-16T04:35:46.583Z,1001.25
2022-09-16T04:36:46.562Z,1001.27
2022-09-16T04:37:46.543Z,1001.28
2022-09-16T04:38:46.591Z,1001.25
2022-09-16T04:39:46.594Z,1001.28
2022-09-16T04:40:46.477Z,1001.29
2022-09-16T04:41:46.475Z,1001.30
2022-09-16T04:42:46.439Z,1001.33
2022-09-16T04:43:46.417Z,1001.37
2022-09-16T04:44:46.394Z,1001.33
2022-09-16T04:45:46.374Z,1001.31
2022-09-16T04:46:46.352Z,1001.31
2022-09-16T04:47:46.334Z,1001.32
2022-09-16T04:48:46.314Z,1001.31
2022-09-16T04:49:46.289Z,1001.30
2022-09-16T04:50:46.272Z,1001.28
2022-09-16T04:51:46.247Z,1001.30
2022-09-16T04:52:46.226Z,1001.25
2022-09-16T04:53:46.214Z,1001.28
2022-09-16T04:54:46.184Z,1001.23
2022-09-16T04:55:46.163Z,1001.23
2022-09-16T04:56:46.142Z,1001.27
2022-09-16T04:57:46.137Z,1001.21
2022-09-16T04:58:46.100Z,1001.24
2022-09-16T04:59:46.080Z,1001.26
2022-09-16T05:00:46.059Z,1001.21
2022-09-16T05:01:46.158Z,1001.19
2022-09-16T05:02:46.018Z,1001.25
2022-09-16T05:03:46.080Z,1001.23
2022-09-16T05:04:45.977Z,1001.23
2022-09-16T05:05:45.956Z,1001.25
2022-09-16T05:06:45.933Z,1001.26
2022-09-16T05:07:45.919Z,1001.32
2022-09-16T05:08:45.897Z,1001.25
2022-09-16T05:09:45.867Z,1001.30
2022-09-16T05:10:45.849Z,1001.27
2022-09-16T05:11:45.827Z,1001.26
2022-09-16T05:12:49.386Z,1001.29
2022-09-16T05:13:45.915Z,1001.27
2022-09-16T05:14:45.771Z,1001.27
2022-09-16T05:15:50.384Z,1001.28
2022-09-16T05:16:45.726Z,1001.24
2022-09-16T05:17:51.194Z,1001.31
2022-09-16T05:18:45.682Z,1001.30
2022-09-16T05:19:45.660Z,1001.27
2022-09-16T05:20:45.638Z,1001.27
2022-09-16T05:21:45.619Z,1001.31
2022-09-16T05:22:45.597Z,1001.30
2022-09-16T05:23:46.892Z,1001.32
2022-09-16T05:24:45.554Z,1001.29
2022-09-16T05:25:45.533Z,1001.27
2022-09-16T05:26:45.516Z,1001.31
2022-09-16T05:27:45.491Z,1001.27
2022-09-16T05:28:45.467Z,1001.33
2022-09-16T05:29:45.558Z,1001.34
2022-09-16T05:30:45.444Z,1001.36
2022-09-16T05:31:45.412Z,1001.31
2022-09-16T05:32:45.387Z,1001.32
2022-09-16T05:33:45.364Z,1001.28
2022-09-16T05:34:45.344Z,1001.29
2022-09-16T05:35:45.322Z,1001.30
2022-09-16T05:36:45.298Z,1001.34
2022-09-16T05:37:45.277Z,1001.35
2022-09-16T05:39:04.614Z,1001.37
2022-09-16T05:39:45.239Z,1001.39
2022-09-16T05:40:45.215Z,1001.42
2022-09-16T05:41:45.193Z,1001.42
2022-09-16T05:42:45.172Z,1001.41
2022-09-16T05:43:45.151Z,1001.40
2022-09-16T05:44:45.133Z,1001.44
2022-09-16T05:45:45.250Z,1001.43
2022-09-16T05:46:45.090Z,1001.46
2022-09-16T05:47:45.066Z,1001.45
2022-09-16T05:48:45.065Z,1001.46
2022-09-16T05:49:45.024Z,1001.47
2022-09-16T05:50:45.005Z,1001.48
2022-09-16T05:51:44.983Z,1001.49
2022-09-16T05:52:44.962Z,1001.51
2022-09-16T05:53:44.940Z,1001.49
2022-09-16T05:54:44.920Z,1001.51
2022-09-16T05:55:44.896Z,1001.52
2022-09-16T05:56:44.876Z,1001.49
2022-09-16T05:57:44.857Z,1001.51
2022-09-16T05:58:44.836Z,1001.51
2022-09-16T05:59:44.814Z,1001.48
2022-09-16T06:00:44.793Z,1001.51
2022-09-16T06:01:44.990Z,1001.49
2022-09-16T06:02:44.788Z,1001.47
2022-09-16T06:03:44.792Z,1001.53
2022-09-16T06:04:44.708Z,1001.50
2022-09-16T06:05:45.887Z,1001.57
2022-09-16T06:06:44.668Z,1001.61
2022-09-16T06:07:44.645Z,1001.65
2022-09-16T06:08:44.624Z,1001.64
2022-09-16T06:09:44.602Z,1001.60
2022-09-16T06:10:44.588Z,1001.62
2022-09-16T06:11:44.562Z,1001.63
2022-09-16T06:12:44.540Z,1001.55
2022-09-16T06:13:44.516Z,1001.62
2022-09-16T06:14:44.497Z,1001.58
2022-09-16T06:15:44.598Z,1001.56
2022-09-16T06:16:44.461Z,1001.59
2022-09-16T06:17:44.547Z,1001.57
2022-09-16T06:18:44.456Z,1001.56
2022-09-16T06:19:44.396Z,1001.48
2022-09-16T06:20:44.372Z,1001.50
2022-09-16T06:21:44.349Z,1001.48
2022-09-16T06:22:44.330Z,1001.41
2022-09-16T06:23:44.307Z,1001.41
2022-09-16T06:24:44.286Z,1001.39
2022-09-16T06:25:44.265Z,1001.39
2022-09-16T06:26:44.245Z,1001.41
2022-09-16T06:27:44.223Z,1001.36
2022-09-16T06:28:44.204Z,1001.35
2022-09-16T06:29:44.178Z,1001.31
2022-09-16T06:30:44.192Z,1001.34
2022-09-16T06:31:44.139Z,1001.28
2022-09-16T06:32:44.122Z,1001.33
2022-09-16T06:33:44.224Z,1001.33
2022-09-16T06:34:44.074Z,1001.41
2022-09-16T06:35:44.051Z,1001.36
2022-09-16T06:36:45.330Z,1001.39
2022-09-16T06:37:44.009Z,1001.37
2022-09-16T06:38:43.990Z,1001.40
2022-09-16T06:39:43.973Z,1001.45
2022-09-16T06:40:43.948Z,1001.45
2022-09-16T06:41:43.926Z,1001.45
2022-09-16T06:42:43.906Z,1001.50
2022-09-16T06:43:43.886Z,1001.47
2022-09-16T06:44:43.863Z,1001.49
2022-09-16T06:45:43.874Z,1001.49
2022-09-16T06:46:43.867Z,1001.48
2022-09-16T06:47:43.801Z,1001.46
2022-09-16T06:48:43.778Z,1001.45
2022-09-16T06:49:43.874Z,1001.48
2022-09-16T06:50:43.739Z,1001.49
2022-09-16T06:51:43.714Z,1001.47
2022-09-16T06:52:43.713Z,1001.48
2022-09-16T06:53:43.673Z,1001.48
2022-09-16T06:54:43.653Z,1001.51
2022-09-16T06:55:43.632Z,1001.48
2022-09-16T06:56:43.609Z,1001.50
2022-09-16T06:57:43.589Z,1001.50
2022-09-16T06:58:43.573Z,1001.46
2022-09-16T06:59:43.545Z,1001.49
2022-09-16T07:00:43.528Z,1001.47
2022-09-16T07:01:43.596Z,1001.45
2022-09-16T07:02:43.554Z,1001.45
2022-09-16T07:03:43.469Z,1001.49
2022-09-16T07:04:43.439Z,1001.47
2022-09-16T07:05:43.540Z,1001.45
2022-09-16T07:07:09.247Z,1001.51
2022-09-16T07:07:43.378Z,1001.46
2022-09-16T07:08:43.355Z,1001.47
2022-09-16T07:09:43.341Z,1001.48
2022-09-16T07:10:43.313Z,1001.45
2022-09-16T07:11:43.292Z,1001.44
2022-09-16T07:12:43.271Z,1001.43
2022-09-16T07:13:43.251Z,1001.45
2022-09-16T07:14:43.228Z,1001.53
2022-09-16T07:16:02.603Z,1001.53
2022-09-16T07:16:43.292Z,1001.53
2022-09-16T07:17:43.169Z,1001.52
2022-09-16T07:18:43.144Z,1001.51
2022-09-16T07:19:43.123Z,1001.54
2022-09-16T07:20:43.101Z,1001.55
2022-09-16T07:21:43.204Z,1001.52
2022-09-16T07:22:43.060Z,1001.53
2022-09-16T07:23:43.041Z,1001.56
2022-09-16T07:24:43.019Z,1001.57
2022-09-16T07:25:42.995Z,1001.55
2022-09-16T07:26:42.975Z,1001.54
2022-09-16T07:27:42.960Z,1001.56
2022-09-16T07:28:43.867Z,1001.57
2022-09-16T07:29:43.344Z,1001.53
2022-09-16T07:30:42.936Z,1001.56
2022-09-16T07:31:42.886Z,1001.58
2022-09-16T07:32:42.901Z,1001.53
2022-09-16T07:33:42.830Z,1001.56
2022-09-16T07:34:42.806Z,1001.58
2022-09-16T07:35:42.788Z,1001.55
2022-09-16T07:36:42.763Z,1001.58
2022-09-16T07:37:42.975Z,1001.57
2022-09-16T07:38:42.720Z,1001.52
2022-09-16T07:39:42.702Z,1001.52
2022-09-16T07:40:42.680Z,1001.57
2022-09-16T07:41:42.665Z,1001.53
2022-09-16T07:42:42.639Z,1001.57
2022-09-16T07:43:42.620Z,1001.63
2022-09-16T07:44:42.595Z,1001.61
2022-09-16T07:45:42.639Z,1001.63
2022-09-16T07:46:42.554Z,1001.61
2022-09-16T07:47:42.537Z,1001.57
2022-09-16T07:48:42.512Z,1001.59
2022-09-16T07:49:42.493Z,1001.62
2022-09-16T07:50:42.468Z,1001.65
2022-09-16T07:51:42.452Z,1001.67
2022-09-16T07:52:42.461Z,1001.65
2022-09-16T07:53:42.525Z,1001.63
2022-09-16T07:54:42.386Z,1001.64
2022-09-16T07:55:42.366Z,1001.64
2022-09-16T07:56:42.348Z,1001.65
2022-09-16T07:57:42.327Z,1001.66
2022-09-16T07:58:42.302Z,1001.70
2022-09-16T07:59:42.282Z,1001.70
2022-09-16T08:00:42.259Z,1001.70
2022-09-16T08:01:43.595Z,1001.69
2022-09-16T08:02:42.284Z,1001.71
2022-09-16T08:03:42.401Z,1001.72
2022-09-16T08:04:42.177Z,1001.73
2022-09-16T08:05:42.155Z,1001.74
2022-09-16T08:06:42.136Z,1001.71
2022-09-16T08:07:42.116Z,1001.72
2022-09-16T08:08:42.103Z,1001.70
2022-09-16T08:09:46.142Z,1001.73
2022-09-16T08:10:42.083Z,1001.76
2022-09-16T08:11:42.030Z,1001.79
2022-09-16T08:12:42.010Z,1001.78
2022-09-16T08:13:41.987Z,1001.76
2022-09-16T08:14:41.965Z,1001.79
2022-09-16T08:15:41.946Z,1001.81
2022-09-16T08:16:42.025Z,1001.79
2022-09-16T08:17:41.912Z,1001.84
2022-09-16T08:18:41.883Z,1001.82
2022-09-16T08:19:41.863Z,1001.83
2022-09-16T08:20:41.839Z,1001.84
2022-09-16T08:21:41.821Z,1001.87
2022-09-16T08:22:41.801Z,1001.83
2022-09-16T08:23:41.782Z,1001.83
2022-09-16T08:24:41.757Z,1001.84
2022-09-16T08:25:41.855Z,1001.86
2022-09-16T08:26:41.716Z,1001.82
2022-09-16T08:27:41.703Z,1001.81
2022-09-16T08:28:51.191Z,1001.82
2022-09-16T08:29:41.656Z,1001.80
2022-09-16T08:30:41.634Z,1001.80
2022-09-16T08:31:41.669Z,1001.78
2022-09-16T08:32:41.641Z,1001.77
2022-09-16T08:33:41.573Z,1001.82
2022-09-16T08:34:41.547Z,1001.80
2022-09-16T08:35:41.527Z,1001.82
2022-09-16T08:36:41.507Z,1001.81
2022-09-16T08:37:41.489Z,1001.85
2022-09-16T08:38:41.484Z,1001.83
2022-09-16T08:39:41.445Z,1001.76
2022-09-16T08:40:41.423Z,1001.78
2022-09-16T08:41:41.588Z,1001.76
2022-09-16T08:42:41.382Z,1001.77
2022-09-16T08:43:41.361Z,1001.79
2022-09-16T08:44:41.338Z,1001.76
2022-09-16T08:45:41.366Z,1001.82
2022-09-16T08:46:41.296Z,1001.80
2022-09-16T08:47:41.349Z,1001.81
2022-09-16T08:48:41.254Z,1001.77
2022-09-16T08:49:44.075Z,1001.82
2022-09-16T08:50:41.218Z,1001.79
2022-09-16T08:51:41.195Z,1001.80
2022-09-16T08:52:41.172Z,1001.76
2022-09-16T08:53:41.199Z,1001.81
2022-09-16T08:54:41.131Z,1001.79
2022-09-16T08:55:41.112Z,1001.83
2022-09-16T08:56:44.258Z,1001.87
2022-09-16T08:57:41.202Z,1001.85
2022-09-16T08:58:41.049Z,1001.86
2022-09-16T08:59:41.029Z,1001.85
2022-09-16T09:00:41.078Z,1001.86
2022-09-16T09:01:41.208Z,1001.88
2022-09-16T09:03:40.981Z,1001.87
2022-09-16T09:04:40.924Z,1001.90
2022-09-16T09:05:40.911Z,1001.89
2022-09-16T09:06:40.891Z,1001.91
2022-09-16T09:07:40.868Z,1001.88
2022-09-16T09:08:40.848Z,1001.90
2022-09-16T09:09:40.821Z,1001.86
2022-09-16T09:10:40.812Z,1001.89
2022-09-16T09:11:40.782Z,1001.93
2022-09-16T09:12:42.035Z,1001.92
2022-09-16T09:13:40.869Z,1001.92
2022-09-16T09:14:40.716Z,1001.89
2022-09-16T09:15:40.699Z,1001.92
2022-09-16T09:16:40.745Z,1001.90
2022-09-16T09:17:48.061Z,1001.93
2022-09-16T09:18:40.635Z,1001.92
2022-09-16T09:19:40.616Z,1001.94
2022-09-16T09:20:40.593Z,1001.94
2022-09-16T09:21:40.573Z,1001.96
2022-09-16T09:22:40.553Z,1001.94
2022-09-16T09:23:40.535Z,1001.91
2022-09-16T09:24:40.510Z,1001.93
2022-09-16T09:25:40.502Z,1001.96
2022-09-16T09:26:40.468Z,1001.92
2022-09-16T09:27:40.450Z,1001.95
2022-09-16T09:28:40.430Z,1001.96
2022-09-16T09:29:40.532Z,1001.95
2022-09-16T09:30:40.390Z,1001.94
2022-09-16T09:31:40.439Z,1001.99
2022-09-16T09:32:48.873Z,1001.91
2022-09-16T09:33:46.605Z,1001.93
2022-09-16T09:34:41.816Z,1001.90
2022-09-16T09:35:40.287Z,1001.91
2022-09-16T09:36:40.266Z,1001.91
2022-09-16T09:37:40.251Z,1001.95
2022-09-16T09:38:40.224Z,1001.85
2022-09-16T09:39:40.207Z,1001.89
2022-09-16T09:40:40.184Z,1001.86
2022-09-16T09:41:40.184Z,1001.88
2022-09-16T09:42:40.142Z,1001.89
2022-09-16T09:44:40.107Z,1001.87
2022-09-16T09:45:40.250Z,1001.94
2022-09-16T09:46:40.084Z,1001.97
2022-09-16T09:47:40.088Z,1002.04
2022-09-16T09:48:40.039Z,1002.03
2022-09-16T09:49:40.007Z,1002.05
2022-09-16T09:50:39.988Z,1001.98
2022-09-16T09:51:39.963Z,1001.99
2022-09-16T09:52:39.952Z,1001.93
2022-09-16T09:53:39.928Z,1001.92
2022-09-16T09:54:39.898Z,1001.97
2022-09-16T09:55:39.892Z,1001.86
2022-09-16T09:56:39.862Z,1001.89
2022-09-16T09:57:39.843Z,1001.85
2022-09-16T09:58:39.838Z,1001.84
2022-09-16T09:59:39.802Z,1001.86
2022-09-16T10:00:39.818Z,1001.83
2022-09-16T10:01:39.916Z,1001.85
2022-09-16T10:02:39.741Z,1002.01
2022-09-16T10:03:39.722Z,1001.82
2022-09-16T10:04:39.697Z,1002.05
2022-09-16T10:05:39.678Z,1001.98
2022-09-16T10:06:39.658Z,1001.88
2022-09-16T10:07:39.642Z,1001.94
2022-09-16T10:08:39.619Z,1001.95
2022-09-16T10:09:39.618Z,1001.78
2022-09-16T10:10:39.580Z,1001.92
2022-09-16T10:11:39.560Z,1001.93
2022-09-16T10:12:39.539Z,1001.96
2022-09-16T10:13:39.521Z,1001.80
2022-09-16T10:14:39.504Z,1001.78
2022-09-16T10:15:39.484Z,1001.77
2022-09-16T10:16:39.568Z,1001.74
2022-09-16T10:17:39.570Z,1001.75
2022-09-16T10:18:39.426Z,1001.68
2022-09-16T10:19:39.406Z,1001.73
2022-09-16T10:20:39.384Z,1001.71
2022-09-16T10:21:39.367Z,1001.70
2022-09-16T10:22:39.353Z,1001.72
2022-09-16T10:23:39.587Z,1001.80
2022-09-16T10:24:39.305Z,1001.71
2022-09-16T10:25:39.287Z,1001.78
2022-09-16T10:26:39.268Z,1001.84
2022-09-16T10:27:39.247Z,1001.85
2022-09-16T10:28:39.227Z,1001.84
2022-09-16T10:29:39.228Z,1001.76
2022-09-16T10:30:39.190Z,1001.81
2022-09-16T10:31:39.211Z,1001.72
2022-09-16T10:32:39.150Z,1001.70
2022-09-16T10:33:39.255Z,1001.78
2022-09-16T10:34:39.116Z,1001.72
2022-09-16T10:35:39.091Z,1001.74
2022-09-16T10:36:39.071Z,1001.77
2022-09-16T10:37:39.053Z,1001.82
2022-09-16T10:38:39.035Z,1001.74
2022-09-16T10:39:39.014Z,1001.65
2022-09-16T10:40:38.996Z,1001.68
2022-09-16T10:41:38.976Z,1001.67
2022-09-16T10:42:38.959Z,1001.58
2022-09-16T10:43:38.941Z,1001.66
2022-09-16T10:44:38.918Z,1001.62
2022-09-16T10:45:38.904Z,1001.60
2022-09-16T10:46:38.941Z,1001.56
2022-09-16T10:47:38.914Z,1001.59
2022-09-16T10:48:38.842Z,1001.59
2022-09-16T10:49:38.954Z,1001.63
2022-09-16T10:50:38.804Z,1001.60
2022-09-16T10:51:38.800Z,1001.61
2022-09-16T10:52:38.768Z,1001.58
2022-09-16T10:53:42.605Z,1001.60
2022-09-16T10:54:38.729Z,1001.62
2022-09-16T10:55:38.712Z,1001.59
2022-09-16T10:56:38.690Z,1001.58
2022-09-16T10:57:38.674Z,1001.61
2022-09-16T10:58:38.658Z,1001.63
2022-09-16T10:59:38.667Z,1001.65
2022-09-16T11:00:41.218Z,1001.60
2022-09-16T11:01:41.577Z,1001.57
2022-09-16T11:02:38.621Z,1001.57
2022-09-16T11:03:38.631Z,1001.61
2022-09-16T11:04:38.552Z,1001.55
2022-09-16T11:05:38.703Z,1001.50
2022-09-16T11:06:38.560Z,1001.59
2022-09-16T11:07:38.536Z,1001.61
2022-09-16T11:08:38.586Z,1001.62
2022-09-16T11:09:38.554Z,1001.57
2022-09-16T11:10:38.447Z,1001.57
2022-09-16T11:11:38.442Z,1001.51
2022-09-16T11:12:38.463Z,1001.54
2022-09-16T11:13:38.414Z,1001.52
2022-09-16T11:14:38.402Z,1001.51
2022-09-16T11:15:38.371Z,1001.60
2022-09-16T11:16:38.486Z,1001.55
2022-09-16T11:17:38.359Z,1001.54
2022-09-16T11:18:38.310Z,1001.56
2022-09-16T11:19:38.300Z,1001.51
2022-09-16T11:20:38.344Z,1001.48
2022-09-16T11:21:38.421Z,1001.44
2022-09-16T11:22:38.248Z,1001.43
2022-09-16T11:23:38.269Z,1001.55
2022-09-16T11:24:38.259Z,1001.54
2022-09-16T11:25:38.202Z,1001.50
2022-09-16T11:26:38.253Z,1001.57
2022-09-16T11:27:38.191Z,1001.55
2022-09-16T11:28:38.230Z,1001.56
2022-09-16T11:29:38.066Z,1001.47
2022-09-16T11:30:38.055Z,1001.53
2022-09-16T11:31:38.097Z,1001.54
2022-09-16T11:32:38.114Z,1001.56
2022-09-16T11:33:38.044Z,1001.54
2022-09-16T11:34:37.984Z,1001.57
2022-09-16T11:35:37.991Z,1001.52
2022-09-16T11:36:37.990Z,1001.53
2022-09-16T11:37:38.122Z,1001.55
2022-09-16T11:38:39.950Z,1001.54
2022-09-16T11:39:37.921Z,1001.54
2022-09-16T11:40:38.020Z,1001.48
2022-09-16T11:41:37.963Z,1001.52
2022-09-16T11:42:37.887Z,1001.51
2022-09-16T11:43:37.884Z,1001.48
2022-09-16T11:44:37.826Z,1001.57
2022-09-16T11:45:37.826Z,1001.57
2022-09-16T11:46:39.562Z,1001.57
2022-09-16T11:47:40.642Z,1001.56
2022-09-16T11:48:37.789Z,1001.54
2022-09-16T11:49:37.785Z,1001.65
2022-09-16T11:50:37.768Z,1001.65
2022-09-16T11:51:37.750Z,1001.66
2022-09-16T11:52:37.656Z,1001.61
2022-09-16T11:53:41.099Z,1001.64
2022-09-16T11:54:37.636Z,1001.59
2022-09-16T11:55:37.559Z,1001.62
2022-09-16T11:56:37.542Z,1001.62
2022-09-16T11:57:37.519Z,1001.57
2022-09-16T11:58:37.503Z,1001.53
2022-09-16T11:59:37.487Z,1001.53
2022-09-16T12:00:37.488Z,1001.56
2022-09-16T12:01:37.570Z,1001.46
2022-09-16T12:02:37.516Z,1001.50
2022-09-16T12:03:37.412Z,1001.48
2022-09-16T12:04:38.382Z,1001.49
2022-09-16T12:05:37.376Z,1001.51
2022-09-16T12:06:37.369Z,1001.49
2022-09-16T12:07:37.329Z,1001.52